Stolt Ami — 3EAZ5 — position and weather

sailwx.info

Track history (hours):
 
Tides and Currents Weather Stations Pressure Air Temp Water Temp Dewpoint Dewpoint Depression Visibility Wind Speed Wind Dir Waves Ship Positions

Stolt Ami

Last reported at 2015-Mar-20 07:30 UTC. Time now 2015-Mar-27 03:33 UTC.
Position N 29°14' W 094°40'.

Length 143 m; draft 9.4 m.

Type: Ship (hazmat cat B). MMSI: 371392514.

Date/timePositionNaut miles runAvg speedWind from/ knotsBaromVisibWave heightAir tempDewpointWater temp
2015-Mar-20 07:30N 29°14' W 094°40'0 0.0
2015-Mar-20 03:12N 29°14' W 094°40'0 0.0
2015-Mar-18 02:06N 29°14' W 094°40'0 0.0
2015-Mar-16 14:03N 29°14' W 094°40'0 0.0
2015-Mar-16 12:33N 29°13' W 094°40'0 0.0
2015-Mar-16 11:33N 29°13' W 094°40'0 0.0
2015-Mar-16 09:12N 29°13' W 094°40'0 0.0
2015-Mar-16 08:33N 29°13' W 094°40'0 0.0
2015-Mar-16 07:24N 29°13' W 094°40'0 0.0
2015-Mar-16 05:33N 29°13' W 094°40'0 0.0
2015-Mar-14 14:09N 29°13' W 094°40'0 0.0
2015-Mar-14 13:33N 29°13' W 094°40'0 0.0
2015-Mar-14 12:12N 29°13' W 094°40'0 0.0
2015-Mar-14 11:27N 29°13' W 094°40'10 0.7
2015-Mar-13 22:20N 29°21' W 094°47'8 9.8
2015-Mar-13 21:33N 29°28' W 094°51'10 9.5
2015-Mar-13 20:33N 29°36' W 094°57'3 2.4
2015-Mar-13 19:32N 29°37' W 094°59'0 0.0
2015-Mar-13 18:32N 29°37' W 094°59'0 0.0
2015-Mar-13 17:32N 29°37' W 094°59'0 0.0
2015-Mar-13 16:32N 29°37' W 094°60'0 0.0
2015-Mar-13 15:32N 29°37' W 094°59'0 0.0
2015-Mar-13 14:32N 29°37' W 094°59'0 0.0
2015-Mar-13 13:32N 29°37' W 094°60'0 0.0
2015-Mar-13 12:32N 29°37' W 094°59'0 0.0
2015-Mar-13 11:32N 29°37' W 094°59'0 0.0
2015-Mar-13 10:32N 29°37' W 094°59'0 0.0
2015-Mar-13 09:32N 29°37' W 094°60'0 0.0
2015-Mar-13 08:32N 29°37' W 094°60'0 0.0
2015-Mar-13 07:32N 29°37' W 094°60'0 0.0
2015-Mar-13 06:32N 29°37' W 094°60'0 0.0
2015-Mar-13 05:32N 29°37' W 094°60'0 0.0
2015-Mar-13 04:32N 29°37' W 094°59'0 0.0
2015-Mar-13 03:32N 29°37' W 094°60'0 0.0
2015-Mar-13 02:32N 29°37' W 094°60'0 0.0
2015-Mar-13 01:32N 29°37' W 094°59'0 0.0
2015-Mar-13 00:32N 29°37' W 094°59'0 0.0
2015-Mar-12 23:29N 29°37' W 094°60'0 0.0
2015-Mar-12 22:32N 29°37' W 094°59'0 0.0
2015-Mar-12 21:32N 29°37' W 094°60'0 0.0
2015-Mar-12 20:32N 29°37' W 094°60'0 0.0
2015-Mar-12 19:32N 29°37' W 094°59'0 0.0
2015-Mar-12 18:32N 29°37' W 094°60'0 0.0
2015-Mar-12 17:32N 29°37' W 094°60'0 0.0
2015-Mar-12 16:32N 29°37' W 094°60'0 0.0
2015-Mar-12 15:32N 29°37' W 094°60'0 0.0
2015-Mar-12 14:32N 29°37' W 094°59'0 0.0
2015-Mar-12 13:32N 29°37' W 094°59'0 0.0
2015-Mar-12 12:32N 29°37' W 094°59'0 0.0
2015-Mar-12 11:32N 29°37' W 094°59'0 0.0
2015-Mar-12 10:32N 29°37' W 094°59'0 0.0
2015-Mar-12 09:32N 29°37' W 094°59'0 0.0
2015-Mar-12 08:32N 29°37' W 094°59'0 0.0
2015-Mar-12 07:32N 29°37' W 094°59'0 0.0
2015-Mar-12 06:32N 29°37' W 094°60'0 0.0
2015-Mar-12 05:32N 29°37' W 094°60'0 0.0
2015-Mar-12 04:32N 29°37' W 094°60'0 0.0
2015-Mar-12 03:32N 29°37' W 094°59'0 0.0
2015-Mar-12 02:32N 29°37' W 094°59'0 0.0
2015-Mar-12 01:32N 29°37' W 094°59'0 0.0
2015-Mar-12 00:32N 29°37' W 094°59'0 0.0
2015-Mar-11 23:32N 29°37' W 094°59'0 0.0
2015-Mar-11 22:32N 29°37' W 094°59'0 0.0
2015-Mar-11 21:32N 29°37' W 094°60'0 0.0
2015-Mar-11 20:32N 29°37' W 094°60'0 0.0
2015-Mar-11 19:32N 29°37' W 094°59'0 0.0
2015-Mar-11 18:32N 29°37' W 094°59'0 0.0
2015-Mar-11 17:32N 29°37' W 094°59'0 0.0
2015-Mar-11 16:29N 29°37' W 094°59'0 0.0
2015-Mar-11 15:32N 29°37' W 094°59'0 0.0
2015-Mar-11 14:32N 29°37' W 094°59'0 0.0
2015-Mar-11 13:32N 29°37' W 094°59'0 0.0
2015-Mar-11 12:32N 29°37' W 094°59'0 0.0
2015-Mar-11 11:32N 29°37' W 094°59'0 0.0
2015-Mar-11 10:32N 29°37' W 094°59'0 0.0
2015-Mar-11 09:32N 29°37' W 094°60'0 0.0
2015-Mar-11 08:32N 29°37' W 094°59'0 0.0
2015-Mar-11 07:32N 29°37' W 094°60'0 0.3
2015-Mar-11 06:33N 29°37' W 094°59'8 7.7
2015-Mar-11 05:33N 29°31' W 094°53'10 9.8
2015-Mar-11 04:33N 29°22' W 094°48'  
Track history (hours):
 
Tides and Currents Weather Stations Pressure Air Temp Water Temp Dewpoint Dewpoint Depression Visibility Wind Speed Wind Dir Waves Ship Positions

Stolt Ami

Last reported at 2015-Mar-20 07:30 UTC. Time now 2015-Mar-27 03:33 UTC.
Position N 29°14' W 094°40'.

Length 143 m; draft 9.4 m.

Type: Ship (hazmat cat B). MMSI: 371392514.

Date/timePositionNaut miles runAvg speedWind from/ knotsBaromVisibWave heightAir tempDewpointWater temp
2015-Mar-20 07:30N 29°14' W 094°40'0 0.0
2015-Mar-20 03:12N 29°14' W 094°40'0 0.0
2015-Mar-18 02:06N 29°14' W 094°40'0 0.0
2015-Mar-16 14:03N 29°14' W 094°40'0 0.0
2015-Mar-16 12:33N 29°13' W 094°40'0 0.0
2015-Mar-16 11:33N 29°13' W 094°40'0 0.0
2015-Mar-16 09:12N 29°13' W 094°40'0 0.0
2015-Mar-16 08:33N 29°13' W 094°40'0 0.0
2015-Mar-16 07:24N 29°13' W 094°40'0 0.0
2015-Mar-16 05:33N 29°13' W 094°40'0 0.0
2015-Mar-14 14:09N 29°13' W 094°40'0 0.0
2015-Mar-14 13:33N 29°13' W 094°40'0 0.0
2015-Mar-14 12:12N 29°13' W 094°40'0 0.0
2015-Mar-14 11:27N 29°13' W 094°40'10 0.7
2015-Mar-13 22:20N 29°21' W 094°47'8 9.8
2015-Mar-13 21:33N 29°28' W 094°51'10 9.5
2015-Mar-13 20:33N 29°36' W 094°57'3 2.4
2015-Mar-13 19:32N 29°37' W 094°59'0 0.0
2015-Mar-13 18:32N 29°37' W 094°59'0 0.0
2015-Mar-13 17:32N 29°37' W 094°59'0 0.0
2015-Mar-13 16:32N 29°37' W 094°60'0 0.0
2015-Mar-13 15:32N 29°37' W 094°59'0 0.0
2015-Mar-13 14:32N 29°37' W 094°59'0 0.0
2015-Mar-13 13:32N 29°37' W 094°60'0 0.0
2015-Mar-13 12:32N 29°37' W 094°59'0 0.0
2015-Mar-13 11:32N 29°37' W 094°59'0 0.0
2015-Mar-13 10:32N 29°37' W 094°59'0 0.0
2015-Mar-13 09:32N 29°37' W 094°60'0 0.0
2015-Mar-13 08:32N 29°37' W 094°60'0 0.0
2015-Mar-13 07:32N 29°37' W 094°60'0 0.0
2015-Mar-13 06:32N 29°37' W 094°60'0 0.0
2015-Mar-13 05:32N 29°37' W 094°60'0 0.0
2015-Mar-13 04:32N 29°37' W 094°59'0 0.0
2015-Mar-13 03:32N 29°37' W 094°60'0 0.0
2015-Mar-13 02:32N 29°37' W 094°60'0 0.0
2015-Mar-13 01:32N 29°37' W 094°59'0 0.0
2015-Mar-13 00:32N 29°37' W 094°59'0 0.0
2015-Mar-12 23:29N 29°37' W 094°60'0 0.0
2015-Mar-12 22:32N 29°37' W 094°59'0 0.0
2015-Mar-12 21:32N 29°37' W 094°60'0 0.0
2015-Mar-12 20:32N 29°37' W 094°60'0 0.0
2015-Mar-12 19:32N 29°37' W 094°59'0 0.0
2015-Mar-12 18:32N 29°37' W 094°60'0 0.0
2015-Mar-12 17:32N 29°37' W 094°60'0 0.0
2015-Mar-12 16:32N 29°37' W 094°60'0 0.0
2015-Mar-12 15:32N 29°37' W 094°60'0 0.0
2015-Mar-12 14:32N 29°37' W 094°59'0 0.0
2015-Mar-12 13:32N 29°37' W 094°59'0 0.0
2015-Mar-12 12:32N 29°37' W 094°59'0 0.0
2015-Mar-12 11:32N 29°37' W 094°59'0 0.0
2015-Mar-12 10:32N 29°37' W 094°59'0 0.0
2015-Mar-12 09:32N 29°37' W 094°59'0 0.0
2015-Mar-12 08:32N 29°37' W 094°59'0 0.0
2015-Mar-12 07:32N 29°37' W 094°59'0 0.0
2015-Mar-12 06:32N 29°37' W 094°60'0 0.0
2015-Mar-12 05:32N 29°37' W 094°60'0 0.0
2015-Mar-12 04:32N 29°37' W 094°60'0 0.0
2015-Mar-12 03:32N 29°37' W 094°59'0 0.0
2015-Mar-12 02:32N 29°37' W 094°59'0 0.0
2015-Mar-12 01:32N 29°37' W 094°59'0 0.0
2015-Mar-12 00:32N 29°37' W 094°59'0 0.0
2015-Mar-11 23:32N 29°37' W 094°59'0 0.0
2015-Mar-11 22:32N 29°37' W 094°59'0 0.0
2015-Mar-11 21:32N 29°37' W 094°60'0 0.0
2015-Mar-11 20:32N 29°37' W 094°60'0 0.0
2015-Mar-11 19:32N 29°37' W 094°59'0 0.0
2015-Mar-11 18:32N 29°37' W 094°59'0 0.0
2015-Mar-11 17:32N 29°37' W 094°59'0 0.0
2015-Mar-11 16:29N 29°37' W 094°59'0 0.0
2015-Mar-11 15:32N 29°37' W 094°59'0 0.0
2015-Mar-11 14:32N 29°37' W 094°59'0 0.0
2015-Mar-11 13:32N 29°37' W 094°59'0 0.0
2015-Mar-11 12:32N 29°37' W 094°59'0 0.0
2015-Mar-11 11:32N 29°37' W 094°59'0 0.0
2015-Mar-11 10:32N 29°37' W 094°59'0 0.0
2015-Mar-11 09:32N 29°37' W 094°60'0 0.0
2015-Mar-11 08:32N 29°37' W 094°59'0 0.0
2015-Mar-11 07:32N 29°37' W 094°60'0 0.3
2015-Mar-11 06:33N 29°37' W 094°59'8 7.7
2015-Mar-11 05:33N 29°31' W 094°53'10 9.8
2015-Mar-11 04:33N 29°22' W 094°48'  

Dump ship's entire track history